createdAt,value
2023-02-09T00:00:29.735Z,58.11
2023-02-09T00:05:34.530Z,58.43
2023-02-09T00:10:40.203Z,58.99
2023-02-09T00:15:50.177Z,58.71
2023-02-09T00:21:02.621Z,59.22
2023-02-09T00:26:08.552Z,59.63
2023-02-09T00:31:13.840Z,59.05
2023-02-09T00:36:18.994Z,59.07
2023-02-09T00:41:43.066Z,59.54
2023-02-09T00:46:46.409Z,59.82
2023-02-09T00:51:51.529Z,59.77
2023-02-09T00:56:54.894Z,60.10
2023-02-09T01:01:58.575Z,60.00
2023-02-09T01:07:03.479Z,60.13
2023-02-09T01:12:07.547Z,60.13
2023-02-09T01:17:11.472Z,59.86
2023-02-09T01:22:16.710Z,59.42
2023-02-09T01:27:20.681Z,60.01
2023-02-09T01:32:24.249Z,60.42
2023-02-09T01:37:29.076Z,60.53
2023-02-09T01:42:32.529Z,60.17
2023-02-09T01:47:43.349Z,60.12
2023-02-09T01:52:49.634Z,60.10
2023-02-09T01:57:57.647Z,60.44
2023-02-09T02:03:05.699Z,60.56
2023-02-09T02:08:17.563Z,60.52
2023-02-09T02:13:21.725Z,60.06
2023-02-09T02:18:46.668Z,60.73
2023-02-09T02:24:07.403Z,60.25
2023-02-09T02:29:51.044Z,60.43
2023-02-09T02:35:02.915Z,60.48
2023-02-09T02:40:15.371Z,60.54
2023-02-09T02:45:30.642Z,61.20
2023-02-09T02:50:38.894Z,60.60
2023-02-09T02:55:46.292Z,60.61
2023-02-09T03:00:53.554Z,60.52
2023-02-09T03:06:00.482Z,60.58
2023-02-09T03:11:04.010Z,60.46
2023-02-09T03:16:22.595Z,60.47
2023-02-09T03:21:37.932Z,60.17
2023-02-09T03:26:46.987Z,60.74
2023-02-09T03:31:51.649Z,60.60
2023-02-09T03:36:58.864Z,60.36
2023-02-09T03:42:02.207Z,60.52
2023-02-09T03:47:08.071Z,60.50
2023-02-09T03:52:14.911Z,60.64
2023-02-09T03:57:18.474Z,60.40
2023-02-09T04:02:22.122Z,60.77
2023-02-09T04:07:26.932Z,60.21
2023-02-09T04:12:30.321Z,60.33
2023-02-09T04:17:33.767Z,60.63
2023-02-09T04:22:38.639Z,60.29
2023-02-09T04:27:41.827Z,60.37
2023-02-09T04:32:45.341Z,60.50
2023-02-09T04:37:50.248Z,60.73
2023-02-09T04:42:53.920Z,60.44
2023-02-09T04:47:57.307Z,60.38
2023-02-09T04:53:02.443Z,60.17
2023-02-09T04:58:23.520Z,61.08
2023-02-09T05:03:27.864Z,60.68
2023-02-09T05:08:33.289Z,60.76
2023-02-09T05:13:36.717Z,60.68
2023-02-09T05:18:40.114Z,60.60
2023-02-09T05:23:45.097Z,60.35
2023-02-09T05:28:48.535Z,60.57
2023-02-09T05:33:51.870Z,60.87
2023-02-09T05:38:56.612Z,60.98
2023-02-09T05:43:59.990Z,60.52
2023-02-09T05:49:03.656Z,60.74
2023-02-09T05:54:08.562Z,60.89
2023-02-09T05:59:11.616Z,60.69
2023-02-09T06:04:15.148Z,60.85
2023-02-09T06:09:20.677Z,60.28
2023-02-09T06:14:24.201Z,60.60
2023-02-09T06:19:27.552Z,59.58
2023-02-09T06:24:32.361Z,60.24
2023-02-09T06:29:35.907Z,60.40
2023-02-09T06:34:39.430Z,59.87
2023-02-09T06:39:44.383Z,60.03
2023-02-09T06:44:47.553Z,59.81
2023-02-09T06:49:50.995Z,59.92
2023-02-09T06:54:56.116Z,59.93
2023-02-09T06:59:59.180Z,59.39
2023-02-09T07:05:02.827Z,59.54
2023-02-09T07:10:10.311Z,59.49
2023-02-09T07:15:15.414Z,59.33
2023-02-09T07:20:19.021Z,60.03
2023-02-09T07:25:23.829Z,59.72
2023-02-09T07:30:27.182Z,59.13
2023-02-09T07:35:30.543Z,59.20
2023-02-09T07:40:35.337Z,59.57
2023-02-09T07:45:38.764Z,59.27
2023-02-09T07:50:42.116Z,59.26
2023-02-09T07:55:47.226Z,59.59
2023-02-09T08:00:52.015Z,58.99
2023-02-09T08:06:00.262Z,59.10
2023-02-09T08:11:05.740Z,59.30
2023-02-09T08:16:14.172Z,58.71
2023-02-09T08:21:19.560Z,59.03
2023-02-09T08:26:24.872Z,58.53
2023-02-09T08:31:28.453Z,58.82
2023-02-09T08:36:34.470Z,59.01
2023-02-09T08:41:39.372Z,58.30
2023-02-09T08:46:42.534Z,58.16
2023-02-09T08:51:46.217Z,58.67
2023-02-09T08:56:51.157Z,58.81
2023-02-09T09:01:55.181Z,58.74
2023-02-09T09:06:58.685Z,58.54
2023-02-09T09:12:03.609Z,58.48
2023-02-09T09:17:06.685Z,58.74
2023-02-09T09:22:10.266Z,59.19
2023-02-09T09:27:15.016Z,59.00
2023-02-09T09:32:18.925Z,58.36
2023-02-09T09:37:22.591Z,58.83
2023-02-09T09:42:35.912Z,58.66
2023-02-09T09:47:41.686Z,58.92
2023-02-09T09:52:48.567Z,59.24
2023-02-09T09:57:58.500Z,58.85
2023-02-09T10:03:01.859Z,58.42
2023-02-09T10:08:12.042Z,59.09
2023-02-09T10:13:22.374Z,59.62
2023-02-09T10:18:26.676Z,58.09
2023-02-09T10:23:40.017Z,58.12
2023-02-09T10:28:47.070Z,57.94
2023-02-09T10:33:55.754Z,57.73
2023-02-09T10:39:16.852Z,57.53
2023-02-09T10:44:25.608Z,57.88
2023-02-09T10:49:35.454Z,57.46
2023-02-09T10:54:43.247Z,58.25
2023-02-09T10:59:52.708Z,57.83
2023-02-09T11:04:56.147Z,57.39
2023-02-09T11:10:01.257Z,58.32
2023-02-09T11:15:13.950Z,57.40
2023-02-09T11:20:24.719Z,57.83
2023-02-09T11:25:30.348Z,57.60
2023-02-09T11:30:53.077Z,57.41
2023-02-09T11:36:10.188Z,56.79
2023-02-09T11:41:35.026Z,57.58
2023-02-09T11:46:42.070Z,57.27
2023-02-09T11:51:47.716Z,57.31
2023-02-09T11:56:54.461Z,57.40
2023-02-09T12:02:06.389Z,56.95
2023-02-09T12:07:19.502Z,57.02
2023-02-09T12:12:30.477Z,57.39
2023-02-09T12:17:43.412Z,57.14
2023-02-09T12:22:58.191Z,57.17
2023-02-09T12:28:19.816Z,57.29
2023-02-09T12:33:31.496Z,57.60
2023-02-09T12:39:07.390Z,57.21
2023-02-09T12:44:39.544Z,57.67
2023-02-09T12:49:45.163Z,57.27
2023-02-09T12:54:52.221Z,57.50
2023-02-09T13:00:43.104Z,56.62
2023-02-09T13:05:50.275Z,57.16
2023-02-09T13:10:58.997Z,56.97
2023-02-09T13:16:43.697Z,56.81
2023-02-09T13:22:00.635Z,57.55
2023-02-09T13:27:04.492Z,57.39
2023-02-09T13:32:22.137Z,57.31
2023-02-09T13:37:34.471Z,57.38
2023-02-09T13:42:38.441Z,57.32
2023-02-09T13:47:44.192Z,56.95
2023-02-09T13:52:50.854Z,56.77
2023-02-09T13:58:00.337Z,56.86
2023-02-09T14:03:12.467Z,57.52
2023-02-09T14:08:19.653Z,57.33
2023-02-09T14:13:26.481Z,57.14
2023-02-09T14:18:33.382Z,57.44
2023-02-09T14:23:38.473Z,57.67
2023-02-09T14:28:42.692Z,57.84
2023-02-09T14:33:49.127Z,58.03
2023-02-09T14:38:54.527Z,57.63
2023-02-09T14:44:03.548Z,57.77
2023-02-09T14:49:06.892Z,57.64
2023-02-09T14:54:24.127Z,57.69
2023-02-09T14:59:27.566Z,58.19
2023-02-09T15:04:30.952Z,57.94
2023-02-09T15:09:39.229Z,57.59
2023-02-09T15:14:45.294Z,58.07
2023-02-09T15:19:49.072Z,58.31
2023-02-09T15:24:54.716Z,58.24
2023-02-09T15:30:00.520Z,58.30
2023-02-09T15:35:08.908Z,57.54
2023-02-09T15:40:39.643Z,57.20
2023-02-09T15:46:00.376Z,57.39
2023-02-09T15:51:04.819Z,57.34
2023-02-09T15:56:10.572Z,57.03
2023-02-09T16:01:16.955Z,56.83
2023-02-09T16:06:24.864Z,56.72
2023-02-09T16:11:33.300Z,56.72
2023-02-09T16:16:36.994Z,56.58
2023-02-09T16:21:42.750Z,56.35
2023-02-09T16:26:47.867Z,56.68
2023-02-09T16:31:51.472Z,56.66
2023-02-09T16:36:54.981Z,57.19
2023-02-09T16:42:01.236Z,56.79
2023-02-09T16:47:11.106Z,57.44
2023-02-09T16:52:18.098Z,57.00
2023-02-09T16:57:24.388Z,56.95
2023-02-09T17:02:38.139Z,56.73
2023-02-09T17:07:53.565Z,56.30
2023-02-09T17:13:01.926Z,56.69
2023-02-09T17:18:08.251Z,56.21
2023-02-09T17:23:16.296Z,55.44
2023-02-09T17:28:21.097Z,56.50
2023-02-09T17:33:25.541Z,55.78
2023-02-09T17:38:31.274Z,56.43
2023-02-09T17:43:36.335Z,56.37
2023-02-09T17:48:39.609Z,56.15
2023-02-09T17:53:43.004Z,57.01
2023-02-09T17:58:48.407Z,56.39
2023-02-09T18:03:51.927Z,56.61
2023-02-09T18:08:55.514Z,56.05
2023-02-09T18:14:00.444Z,56.75
2023-02-09T18:19:03.519Z,55.54
2023-02-09T18:24:07.861Z,55.78
2023-02-09T18:29:12.630Z,55.32
2023-02-09T18:34:16.441Z,55.21
2023-02-09T18:39:19.869Z,55.33
2023-02-09T18:44:29.404Z,54.76
2023-02-09T18:49:32.961Z,54.48
2023-02-09T18:54:37.059Z,54.95
2023-02-09T18:59:41.842Z,54.63
2023-02-09T19:04:45.325Z,54.64
2023-02-09T19:09:48.925Z,53.95
2023-02-09T19:14:53.912Z,54.33
2023-02-09T19:19:59.137Z,54.56
2023-02-09T19:25:02.632Z,54.71
2023-02-09T19:30:09.095Z,54.46
2023-02-09T19:35:12.658Z,54.04
2023-02-09T19:40:21.695Z,54.07
2023-02-09T19:45:26.633Z,54.02
2023-02-09T19:50:30.210Z,54.14
2023-02-09T19:55:33.867Z,54.10
2023-02-09T20:00:39.595Z,53.67
2023-02-09T20:05:43.609Z,53.80
2023-02-09T20:10:47.677Z,53.54
2023-02-09T20:15:52.665Z,53.50
2023-02-09T20:20:56.194Z,53.73
2023-02-09T20:25:59.596Z,53.65
2023-02-09T20:31:04.541Z,53.61
2023-02-09T20:36:09.740Z,53.49
2023-02-09T20:41:15.317Z,53.53
2023-02-09T20:46:42.447Z,53.19
2023-02-09T20:51:47.065Z,53.92
2023-02-09T20:56:50.979Z,53.34
2023-02-09T21:01:55.920Z,53.46
2023-02-09T21:07:00.588Z,53.70
2023-02-09T21:12:04.084Z,53.80
2023-02-09T21:17:09.020Z,53.97
2023-02-09T21:22:12.444Z,53.78
2023-02-09T21:27:16.118Z,53.75
2023-02-09T21:32:21.167Z,53.59
2023-02-09T21:37:24.531Z,53.94
2023-02-09T21:42:28.929Z,53.50
2023-02-09T21:47:36.175Z,53.69
2023-02-09T21:52:39.713Z,53.50
2023-02-09T21:57:43.046Z,54.21
2023-02-09T22:02:47.994Z,54.25
2023-02-09T22:07:51.096Z,53.85
2023-02-09T22:12:54.555Z,53.80
2023-02-09T22:17:59.297Z,53.84
2023-02-09T22:23:02.830Z,54.13
2023-02-09T22:28:06.909Z,53.91
2023-02-09T22:33:11.779Z,53.98
2023-02-09T22:38:15.015Z,54.43
2023-02-09T22:43:18.436Z,54.13
2023-02-09T22:48:23.323Z,54.67
2023-02-09T22:53:27.726Z,54.05
2023-02-09T22:58:31.271Z,54.25
2023-02-09T23:03:36.785Z,54.68
2023-02-09T23:08:40.162Z,54.53
2023-02-09T23:13:44.176Z,55.11
2023-02-09T23:18:50.635Z,54.58
2023-02-09T23:23:54.856Z,54.41
2023-02-09T23:29:00.173Z,54.49
2023-02-09T23:34:05.689Z,54.47
2023-02-09T23:39:09.050Z,54.12
2023-02-09T23:44:13.443Z,54.10
2023-02-09T23:49:18.334Z,54.22
2023-02-09T23:54:21.563Z,53.44
2023-02-09T23:59:25.078Z,53.69
